Time;durP1;ratioP1;P1;durP2;ratioP2;P2;SDS_P1;SDS_P2;PMS_P1;PMS_P2;Temp;Humidity;BMP_temperature;BMP_pressure;BME280_temperature;BME280_humidity;BME280_pressure;Samples;Min_cycle;Max_cycle;Signal;HPM_P1;HPM_P2
2022/01/12 00:02:24;;;;;;;13.20;9.20;;;0.80;91.40;;;;;;5118369;28;20457;-44
2022/01/12 00:04:52;;;;;;;10.20;9.20;;;0.70;91.40;;;;;;5118805;28;20255;-44
2022/01/12 00:07:18;;;;;;;11.10;9.77;;;0.70;91.30;;;;;;5118498;28;20185;-44
2022/01/12 00:09:43;;;;;;;12.17;9.83;;;0.70;91.40;;;;;;5118354;28;20420;-44
2022/01/12 00:12:09;;;;;;;12.93;10.53;;;0.70;91.40;;;;;;5100749;28;20199;-44
2022/01/12 00:14:35;;;;;;;10.73;9.33;;;0.70;91.40;;;;;;5118809;28;20165;-44
2022/01/12 00:17:01;;;;;;;10.60;8.77;;;0.70;91.40;;;;;;5118671;28;20422;-44
2022/01/12 00:19:28;;;;;;;12.27;9.90;;;0.70;91.40;;;;;;5117947;28;20188;-44
2022/01/12 00:21:57;;;;;;;9.90;8.33;;;0.60;91.40;;;;;;5114126;28;20188;-44
2022/01/12 00:24:39;;;;;;;10.47;7.93;;;0.60;91.40;;;;;;5099702;28;20451;-44
2022/01/12 00:35:19;;;;;;;12.30;8.30;;;0.50;91.60;;;;;;5115358;28;20678;-43
2022/01/12 00:37:44;;;;;;;14.00;9.20;;;0.50;91.70;;;;;;5117753;28;20418;-43
2022/01/12 00:40:11;;;;;;;9.00;7.90;;;0.40;91.70;;;;;;5118135;28;20183;-40
2022/01/12 00:42:36;;;;;;;10.50;8.63;;;0.40;91.70;;;;;;5097807;28;20474;-43
2022/01/12 00:45:04;;;;;;;9.03;7.80;;;0.40;91.80;;;;;;5097596;28;20415;-43
2022/01/12 00:47:32;;;;;;;9.03;7.63;;;0.30;91.70;;;;;;5097597;28;20165;-43
2022/01/12 00:49:58;;;;;;;11.07;8.63;;;0.30;91.80;;;;;;5098350;28;20509;-44
2022/01/12 00:52:23;;;;;;;10.20;8.23;;;0.30;91.80;;;;;;5097962;28;20444;-44
2022/01/12 00:54:49;;;;;;;9.50;7.83;;;0.30;91.90;;;;;;5097443;28;20232;-43
2022/01/12 00:57:14;;;;;;;10.50;8.60;;;0.20;91.90;;;;;;5106803;28;20267;-44
2022/01/12 00:59:40;;;;;;;8.80;7.47;;;0.20;91.90;;;;;;5099951;28;20181;-44
2022/01/12 01:02:06;;;;;;;8.47;7.67;;;0.20;91.90;;;;;;5079911;28;20275;-40
2022/01/12 01:04:31;;;;;;;9.40;8.40;;;0.20;91.90;;;;;;5098179;28;20212;-44
2022/01/12 01:06:57;;;;;;;8.97;8.07;;;0.10;91.80;;;;;;5088314;28;20195;-43
2022/01/12 01:09:23;;;;;;;11.43;7.87;;;0.10;91.90;;;;;;5117419;28;20272;-44
2022/01/12 01:11:49;;;;;;;9.90;8.20;;;0.10;91.90;;;;;;5109493;28;20189;-45
2022/01/12 01:14:23;;;;;;;9.80;8.80;;;0.10;92.00;;;;;;5097535;28;20975;-43
2022/01/12 01:25:30;;;;;;;10.60;8.73;;;0.00;91.90;;;;;;5100431;28;20463;-45
2022/01/12 01:27:49;;;;;;;10.33;8.10;;;-0.10;91.90;;;;;;5100884;28;20543;-43
2022/01/12 01:30:16;;;;;;;10.50;8.60;;;-0.10;92.00;;;;;;5101461;28;20425;-44
2022/01/12 01:32:43;;;;;;;10.17;8.10;;;-0.10;92.00;;;;;;5113217;28;20172;-44
2022/01/12 01:35:09;;;;;;;9.40;8.40;;;-0.10;92.00;;;;;;5085056;28;20415;-43
2022/01/12 01:37:34;;;;;;;10.40;8.47;;;-0.20;92.00;;;;;;5101558;28;20840;-44
2022/01/12 01:40:00;;;;;;;10.83;9.43;;;-0.20;92.00;;;;;;5121842;28;20188;-45
2022/01/12 01:42:41;;;;;;;12.37;8.87;;;-0.20;92.10;;;;;;5106427;28;20191;-41
2022/01/12 01:53:21;;;;;;;10.43;8.80;;;-0.30;92.10;;;;;;5101036;28;20429;-43
2022/01/12 01:55:49;;;;;;;9.97;7.10;;;-0.30;92.10;;;;;;5100625;28;20447;-43
2022/01/12 01:58:17;;;;;;;8.83;7.63;;;-0.30;92.10;;;;;;5100710;28;20425;-44
2022/01/12 02:00:43;;;;;;;8.97;8.07;;;-0.30;92.10;;;;;;5083282;28;20419;-44
2022/01/12 02:03:19;;;;;;;14.13;8.73;;;-0.30;92.10;;;;;;5082982;28;20829;-43
2022/01/12 02:05:44;;;;;;;11.67;9.13;;;-0.40;92.10;;;;;;5100612;28;20426;-44
2022/01/12 02:08:12;;;;;;;9.57;8.10;;;-0.40;92.50;;;;;;5082262;28;20736;-44
2022/01/12 02:10:38;;;;;;;9.87;8.17;;;-0.40;92.20;;;;;;5100316;28;20176;-44
2022/01/12 02:13:04;;;;;;;9.30;7.70;;;-0.40;92.20;;;;;;5102814;28;20440;-44
2022/01/12 02:15:30;;;;;;;9.53;8.53;;;-0.40;92.20;;;;;;5106259;28;20514;-42
2022/01/12 02:37:02;;;;;;;8.60;7.77;;;-0.50;92.10;;;;;;5099109;28;20849;-43
2022/01/12 02:42:16;;;;;;;9.30;7.60;;;-0.50;92.10;;;;;;5099873;28;20486;-43
2022/01/12 02:55:42;;;;;;;8.50;6.97;;;-0.60;92.20;;;;;;5099293;28;20432;-44
2022/01/12 02:58:08;;;;;;;9.13;8.13;;;-0.70;92.20;;;;;;5099811;28;20423;-44
2022/01/12 03:00:54;;;;;;;10.87;7.80;;;-0.70;92.20;;;;;;5099854;28;20192;-43
2022/01/12 03:03:24;;;;;;;11.60;9.10;;;-0.70;92.20;;;;;;5099259;28;20193;-42
2022/01/12 03:05:58;;;;;;;9.90;8.43;;;-0.70;92.20;;;;;;5099365;28;20422;-44
2022/01/12 03:08:25;;;;;;;8.37;6.93;;;-0.80;92.10;;;;;;5098987;28;20470;-43
2022/01/12 03:10:51;;;;;;;13.93;9.30;;;-0.80;92.20;;;;;;5098768;28;20423;-43
2022/01/12 03:13:16;;;;;;;10.90;8.50;;;-0.80;92.20;;;;;;5099092;28;20415;-44
2022/01/12 03:15:42;;;;;;;10.47;8.50;;;-0.80;92.30;;;;;;5099382;28;20192;-43
2022/01/12 03:18:08;;;;;;;11.07;9.13;;;-0.80;92.40;;;;;;5099273;28;20207;-42
2022/01/12 03:20:34;;;;;;;10.57;8.80;;;-0.80;92.90;;;;;;5099181;28;20411;-43
2022/01/12 03:23:00;;;;;;;10.00;8.37;;;-0.80;92.60;;;;;;5098979;28;20608;-44
2022/01/12 03:25:26;;;;;;;10.47;9.20;;;-0.80;92.70;;;;;;5099478;28;20259;-43
2022/01/12 03:27:57;;;;;;;12.30;10.13;;;-0.80;92.60;;;;;;5098912;28;20566;-43
2022/01/12 03:30:22;;;;;;;11.97;10.23;;;-0.80;92.70;;;;;;5099297;28;20423;-43
2022/01/12 03:33:03;;;;;;;10.70;8.60;;;-0.80;92.70;;;;;;5099094;28;20419;-43
2022/01/12 03:35:48;;;;;;;11.67;9.63;;;-0.80;92.80;;;;;;5098559;28;20620;-43
2022/01/12 03:38:20;;;;;;;13.40;10.50;;;-0.90;92.70;;;;;;5098865;28;20469;-43
2022/01/12 03:40:46;;;;;;;14.10;11.63;;;-0.90;92.70;;;;;;5098764;28;20426;-43
2022/01/12 03:43:12;;;;;;;12.70;9.27;;;-0.90;92.70;;;;;;5098065;28;20501;-44
2022/01/12 03:45:37;;;;;;;14.40;10.83;;;-0.90;92.60;;;;;;5097790;28;20525;-42
2022/01/12 03:48:04;;;;;;;11.67;10.47;;;-0.90;92.50;;;;;;5098456;28;20236;-43
2022/01/12 03:50:30;;;;;;;11.93;10.67;;;-0.90;92.40;;;;;;5098954;28;20216;-43
2022/01/12 03:52:55;;;;;;;12.40;10.20;;;-0.90;92.40;;;;;;5098694;28;20820;-43
2022/01/12 03:55:21;;;;;;;13.00;11.20;;;-0.90;92.40;;;;;;5098759;28;20172;-43
2022/01/12 03:57:47;;;;;;;13.43;10.67;;;-1.00;92.40;;;;;;5097825;28;20216;-43
2022/01/12 04:00:12;;;;;;;11.70;10.00;;;-1.00;92.40;;;;;;5098567;28;20172;-44
2022/01/12 04:02:39;;;;;;;14.73;10.93;;;-1.00;92.40;;;;;;5098619;28;20192;-42
2022/01/12 04:05:29;;;;;;;12.37;10.77;;;-1.00;92.40;;;;;;5098206;28;20517;-43
2022/01/12 04:10:38;;;;;;;12.00;10.53;;;-1.10;92.20;;;;;;5097606;28;20417;-43
2022/01/12 04:13:04;;;;;;;11.70;10.23;;;-1.10;92.20;;;;;;5098037;28;20430;-42
2022/01/12 04:15:30;;;;;;;11.70;10.50;;;-1.10;92.20;;;;;;5097659;28;20165;-43
2022/01/12 04:17:58;;;;;;;12.10;10.10;;;-1.20;92.10;;;;;;5096955;28;20177;-42
2022/01/12 04:20:23;;;;;;;13.30;11.17;;;-1.20;92.20;;;;;;5097142;28;20173;-43
2022/01/12 04:25:33;;;;;;;14.77;11.07;;;-1.20;92.40;;;;;;5096282;28;20191;-43
2022/01/12 04:27:59;;;;;;;13.30;11.60;;;-1.20;92.40;;;;;;5095716;28;20466;-44
2022/01/12 04:30:31;;;;;;;13.93;11.17;;;-1.30;92.40;;;;;;5095482;28;20211;-42
2022/01/12 04:32:57;;;;;;;11.20;10.00;;;-1.30;92.40;;;;;;5095257;28;20263;-44
2022/01/12 04:35:26;;;;;;;12.10;10.57;;;-1.30;92.40;;;;;;5095480;28;20503;-43
2022/01/12 04:37:51;;;;;;;12.70;11.40;;;-1.30;92.30;;;;;;5095990;28;20181;-42
2022/01/12 04:40:17;;;;;;;14.97;11.10;;;-1.30;92.30;;;;;;5096592;28;20479;-41
2022/01/12 04:42:43;;;;;;;15.30;12.17;;;-1.30;92.30;;;;;;5097677;28;20202;-43
2022/01/12 04:45:33;;;;;;;13.57;10.90;;;-1.30;92.30;;;;;;5097741;28;20415;-43
2022/01/12 04:50:27;;;;;;;13.23;11.03;;;-1.40;92.10;;;;;;5097703;28;20407;-43
2022/01/12 04:52:53;;;;;;;13.60;11.10;;;-1.40;92.10;;;;;;5078583;28;20256;-44
2022/01/12 04:55:19;;;;;;;16.23;12.53;;;-1.40;92.00;;;;;;5094950;28;20418;-43
2022/01/12 04:57:45;;;;;;;14.47;11.73;;;-1.40;92.00;;;;;;5080860;28;20415;-44
2022/01/12 05:00:16;;;;;;;14.03;11.50;;;-1.40;92.10;;;;;;5099409;28;20189;-44
2022/01/12 05:08:21;;;;;;;14.00;11.87;;;-1.50;92.20;;;;;;5110933;28;20476;-46
2022/01/12 05:13:33;;;;;;;12.93;11.00;;;-1.50;92.10;;;;;;5118876;28;20474;-46
2022/01/12 05:16:00;;;;;;;14.67;11.37;;;-1.50;92.00;;;;;;5118960;28;20417;-46
2022/01/12 05:18:27;;;;;;;14.77;11.60;;;-1.50;91.90;;;;;;5118983;28;20421;-46
2022/01/12 05:20:53;;;;;;;13.60;11.47;;;-1.50;91.90;;;;;;5118676;28;20409;-46
2022/01/12 05:23:19;;;;;;;14.40;11.70;;;-1.50;91.90;;;;;;5118333;28;20726;-46
2022/01/12 05:25:48;;;;;;;13.93;11.63;;;-1.50;92.10;;;;;;5117969;28;20172;-46
2022/01/12 05:28:14;;;;;;;14.20;11.80;;;-1.50;91.80;;;;;;5114444;27;20484;-46
2022/01/12 05:30:40;;;;;;;13.23;11.83;;;-1.50;91.70;;;;;;5116907;28;20432;-46
2022/01/12 05:33:06;;;;;;;13.70;12.23;;;-1.50;91.60;;;;;;5117115;28;20414;-46
2022/01/12 05:35:34;;;;;;;15.63;12.40;;;-1.50;91.50;;;;;;5117248;28;20421;-47
2022/01/12 05:38:01;;;;;;;15.73;12.87;;;-1.50;91.50;;;;;;5119476;28;20743;-46
2022/01/12 05:40:28;;;;;;;14.10;11.77;;;-1.50;91.50;;;;;;5119033;28;20422;-46
2022/01/12 05:42:58;;;;;;;15.60;13.37;;;-1.60;91.50;;;;;;5119042;28;20410;-46
2022/01/12 05:45:24;;;;;;;15.10;13.10;;;-1.60;91.50;;;;;;5118818;28;20516;-46
2022/01/12 05:50:17;;;;;;;14.27;11.50;;;-1.60;91.60;;;;;;5119727;28;20418;-46
2022/01/12 05:52:43;;;;;;;15.23;12.90;;;-1.60;91.70;;;;;;5119743;28;20832;-46
2022/01/12 05:55:13;;;;;;;13.37;11.00;;;-1.60;91.80;;;;;;5120153;28;20458;-46
2022/01/12 05:57:39;;;;;;;13.73;11.90;;;-1.70;91.70;;;;;;5117816;28;20713;-46
2022/01/12 06:00:08;;;;;;;16.33;13.00;;;-1.70;91.70;;;;;;5119379;28;20417;-46
2022/01/12 06:02:34;;;;;;;14.47;12.53;;;-1.70;91.70;;;;;;5118986;28;20487;-46
2022/01/12 06:04:59;;;;;;;17.40;13.43;;;-1.70;91.80;;;;;;5117755;28;20418;-45
2022/01/12 06:07:27;;;;;;;14.50;12.33;;;-1.70;91.80;;;;;;5116187;28;20835;-46
2022/01/12 06:09:52;;;;;;;14.30;12.50;;;-1.70;91.80;;;;;;5100128;28;20184;-46
2022/01/12 06:12:18;;;;;;;14.40;11.40;;;-1.80;91.70;;;;;;5117231;28;20431;-46
2022/01/12 06:14:44;;;;;;;14.57;11.70;;;-1.70;91.80;;;;;;5117226;28;20185;-46
2022/01/12 06:17:11;;;;;;;17.93;12.27;;;-1.80;91.70;;;;;;5117305;28;20422;-46
2022/01/12 06:19:37;;;;;;;13.90;11.93;;;-1.80;91.60;;;;;;5116757;28;20188;-46
2022/01/12 06:22:03;;;;;;;14.03;11.90;;;-1.80;91.60;;;;;;5116997;28;20433;-46
2022/01/12 06:24:29;;;;;;;14.40;11.97;;;-1.80;91.60;;;;;;5098789;28;20746;-46
2022/01/12 06:26:55;;;;;;;15.00;12.00;;;-1.80;91.60;;;;;;5116292;28;20473;-46
2022/01/12 06:31:51;;;;;;;14.60;11.27;;;-1.80;91.60;;;;;;5097281;28;20457;-46
2022/01/12 06:34:17;;;;;;;15.90;12.50;;;-1.90;91.50;;;;;;5097922;28;20165;-46
2022/01/12 06:36:46;;;;;;;13.20;11.80;;;-1.90;91.50;;;;;;5097729;28;20426;-45
2022/01/12 06:39:14;;;;;;;14.07;12.40;;;-1.90;91.50;;;;;;5096741;28;20184;-46
2022/01/12 06:41:43;;;;;;;13.67;12.00;;;-1.90;91.50;;;;;;5093463;28;20422;-46
2022/01/12 06:44:13;;;;;;;14.70;13.03;;;-1.90;91.50;;;;;;5093746;28;20431;-46
2022/01/12 06:46:43;;;;;;;16.37;13.07;;;-1.90;91.40;;;;;;5093870;28;20431;-46
2022/01/12 06:49:09;;;;;;;15.63;13.93;;;-1.90;91.40;;;;;;5094152;28;20463;-46
2022/01/12 06:51:34;;;;;;;16.60;13.10;;;-1.90;91.30;;;;;;5094563;28;20505;-46
2022/01/12 06:54:00;;;;;;;16.80;13.47;;;-2.00;91.30;;;;;;5093938;28;20212;-46
2022/01/12 06:56:28;;;;;;;14.90;12.57;;;-2.00;91.40;;;;;;5095447;28;20173;-46
2022/01/12 06:58:53;;;;;;;16.97;13.73;;;-2.00;91.50;;;;;;5095300;28;20485;-46
2022/01/12 07:01:19;;;;;;;18.57;14.40;;;-2.00;91.50;;;;;;5096159;28;20484;-46
2022/01/12 07:03:45;;;;;;;15.37;13.37;;;-2.00;91.60;;;;;;5095972;28;20724;-46
2022/01/12 07:06:10;;;;;;;17.00;13.03;;;-2.00;91.70;;;;;;5096827;28;20756;-46
2022/01/12 07:08:36;;;;;;;14.43;12.87;;;-2.00;91.80;;;;;;5101072;28;20327;-46
2022/01/12 07:11:02;;;;;;;17.13;13.63;;;-2.00;91.80;;;;;;5075182;28;20188;-47
2022/01/12 07:13:28;;;;;;;15.53;12.57;;;-1.90;91.80;;;;;;5094133;28;20430;-46
2022/01/12 07:15:54;;;;;;;17.80;12.90;;;-1.90;91.70;;;;;;5094269;28;20429;-46
2022/01/12 07:18:21;;;;;;;16.87;13.70;;;-1.90;91.70;;;;;;5094146;28;20260;-46
2022/01/12 07:20:48;;;;;;;13.90;11.90;;;-1.90;91.60;;;;;;5094499;28;20188;-46
2022/01/12 07:23:14;;;;;;;16.93;13.33;;;-1.80;91.70;;;;;;5095932;28;20976;-47
2022/01/12 07:25:40;;;;;;;17.50;13.80;;;-1.80;91.60;;;;;;5095918;28;20491;-46
2022/01/12 07:28:06;;;;;;;16.43;14.13;;;-1.70;91.60;;;;;;5096507;28;20482;-46
2022/01/12 07:30:32;;;;;;;17.20;14.13;;;-1.70;91.60;;;;;;5096177;28;20181;-46
2022/01/12 07:32:58;;;;;;;18.17;14.77;;;-1.70;91.50;;;;;;5096715;28;20422;-46
2022/01/12 07:35:24;;;;;;;16.60;14.07;;;-1.60;91.60;;;;;;5096661;28;20181;-46
2022/01/12 07:37:49;;;;;;;17.37;14.43;;;-1.60;91.70;;;;;;5095134;28;20226;-46
2022/01/12 07:40:15;;;;;;;18.77;15.70;;;-1.50;91.70;;;;;;5096286;28;20216;-47
2022/01/12 07:42:41;;;;;;;18.37;14.80;;;-1.50;91.70;;;;;;5097155;28;20181;-46
2022/01/12 07:45:07;;;;;;;17.67;14.17;;;-1.40;91.80;;;;;;5095942;28;20859;-46
2022/01/12 07:47:33;;;;;;;24.30;15.60;;;-1.30;91.90;;;;;;5096098;28;20586;-46
2022/01/12 07:49:59;;;;;;;20.63;16.80;;;-1.10;92.10;;;;;;5094784;28;20441;-46
2022/01/12 07:52:26;;;;;;;18.47;16.00;;;-1.00;92.30;;;;;;5095800;28;20626;-46
2022/01/12 07:54:54;;;;;;;18.27;15.70;;;-0.80;92.40;;;;;;5096087;28;20529;-46
2022/01/12 07:57:26;;;;;;;19.07;16.23;;;-0.60;92.40;;;;;;5096453;28;20413;-46
2022/01/12 07:59:51;;;;;;;19.17;15.40;;;-0.40;92.40;;;;;;5096000;28;20457;-46
2022/01/12 08:02:17;;;;;;;18.40;15.80;;;-0.10;92.50;;;;;;5095656;28;20485;-46
2022/01/12 08:04:42;;;;;;;18.73;15.70;;;0.10;92.70;;;;;;5095997;28;20184;-46
2022/01/12 08:07:10;;;;;;;22.17;17.13;;;0.50;92.30;;;;;;5077547;28;20189;-46
2022/01/12 08:09:39;;;;;;;19.43;17.00;;;0.80;92.00;;;;;;5094201;28;20209;-46
2022/01/12 08:12:06;;;;;;;17.90;15.77;;;1.20;91.80;;;;;;5095687;28;20866;-46
2022/01/12 08:14:31;;;;;;;16.93;15.13;;;1.70;91.50;;;;;;5095394;28;20692;-47
2022/01/12 08:16:57;;;;;;;17.90;14.70;;;2.00;91.00;;;;;;5096307;28;20419;-46
2022/01/12 08:19:24;;;;;;;19.13;15.90;;;2.40;90.60;;;;;;5093499;28;20169;-46
2022/01/12 08:21:50;;;;;;;17.73;14.50;;;2.80;90.40;;;;;;5094768;28;20185;-46
2022/01/12 08:24:16;;;;;;;17.93;15.53;;;3.10;90.10;;;;;;5096484;28;20403;-46
2022/01/12 08:26:42;;;;;;;19.57;16.23;;;3.50;89.90;;;;;;5077685;28;20236;-46
2022/01/12 08:29:14;;;;;;;16.70;15.00;;;4.00;89.20;;;;;;5095377;28;20958;-47
2022/01/12 08:31:40;;;;;;;18.43;15.97;;;4.50;88.10;;;;;;5094132;28;20473;-47
2022/01/12 08:34:05;;;;;;;17.83;15.97;;;5.00;86.60;;;;;;5094795;28;20415;-47
2022/01/12 08:36:31;;;;;;;17.87;15.43;;;5.50;85.20;;;;;;5095462;28;20711;-47
2022/01/12 08:38:59;;;;;;;18.00;15.63;;;6.00;83.30;;;;;;5094218;28;20395;-47
2022/01/12 08:41:25;;;;;;;15.53;13.93;;;6.50;80.70;;;;;;5094402;28;20921;-47
2022/01/12 08:43:51;;;;;;;15.43;13.90;;;7.00;78.60;;;;;;5094061;28;20438;-46
2022/01/12 08:46:17;;;;;;;16.00;14.30;;;7.50;77.00;;;;;;5095910;28;20515;-47
2022/01/12 08:48:44;;;;;;;17.43;14.30;;;7.90;74.50;;;;;;5096388;28;20890;-47
2022/01/12 08:51:09;;;;;;;17.03;13.17;;;8.30;71.50;;;;;;5096089;28;20179;-45
2022/01/12 08:53:37;;;;;;;15.27;13.67;;;8.70;69.30;;;;;;5096854;28;20484;-46
2022/01/12 08:56:03;;;;;;;13.43;12.03;;;8.90;67.70;;;;;;5096655;28;20176;-46
2022/01/12 08:58:29;;;;;;;14.70;13.27;;;9.00;66.80;;;;;;5096120;28;20846;-46
2022/01/12 09:00:55;;;;;;;14.37;12.87;;;9.00;65.20;;;;;;5096437;28;20833;-46
2022/01/12 09:03:22;;;;;;;13.77;12.37;;;8.80;64.50;;;;;;5094621;28;20313;-46
2022/01/12 09:05:49;;;;;;;13.73;11.60;;;9.00;64.20;;;;;;5095010;28;20422;-46
2022/01/12 09:08:15;;;;;;;14.50;13.07;;;9.40;63.50;;;;;;5094394;28;20877;-46
2022/01/12 09:10:40;;;;;;;14.93;13.50;;;9.90;62.60;;;;;;5093696;28;20745;-46
2022/01/12 09:13:06;;;;;;;12.97;11.77;;;10.70;58.60;;;;;;5092623;28;20189;-46
2022/01/12 09:15:34;;;;;;;13.27;11.97;;;11.30;57.10;;;;;;5095157;28;20262;-46
2022/01/12 09:18:00;;;;;;;11.23;10.23;;;12.00;55.10;;;;;;5095519;28;20176;-46
2022/01/12 09:20:26;;;;;;;12.17;11.07;;;12.70;53.20;;;;;;5095563;28;20830;-46
2022/01/12 09:22:52;;;;;;;11.43;10.23;;;13.20;51.10;;;;;;5095367;28;20188;-46
2022/01/12 09:25:18;;;;;;;9.97;9.07;;;13.70;49.90;;;;;;5096267;28;20409;-46
2022/01/12 09:27:44;;;;;;;11.70;10.70;;;14.20;49.00;;;;;;5096690;28;20464;-46
2022/01/12 09:30:11;;;;;;;11.27;10.27;;;14.80;48.00;;;;;;5095340;28;20413;-46
2022/01/12 09:32:37;;;;;;;11.50;10.50;;;15.30;46.20;;;;;;5095130;28;20561;-46
2022/01/12 09:35:05;;;;;;;10.50;9.53;;;15.70;44.40;;;;;;5095170;28;20421;-46
2022/01/12 09:37:31;;;;;;;10.30;9.43;;;16.00;43.50;;;;;;5096184;28;20752;-46
2022/01/12 09:39:56;;;;;;;10.87;9.80;;;16.60;42.60;;;;;;5076958;28;20455;-46
2022/01/12 09:42:22;;;;;;;11.20;10.20;;;17.20;41.70;;;;;;5097489;28;20181;-46
2022/01/12 09:44:48;;;;;;;10.80;9.80;;;17.90;40.20;;;;;;5081131;28;20533;-46
2022/01/12 09:47:15;;;;;;;11.33;10.43;;;18.60;39.10;;;;;;5098775;28;20269;-46
2022/01/12 09:49:42;;;;;;;10.10;9.20;;;19.00;38.50;;;;;;5097522;28;20770;-46
2022/01/12 09:52:08;;;;;;;10.50;9.70;;;19.80;36.90;;;;;;5096628;28;20422;-47
2022/01/12 09:54:34;;;;;;;11.50;10.50;;;20.60;35.40;;;;;;5096308;28;20422;-47
2022/01/12 09:57:00;;;;;;;10.53;9.70;;;21.20;34.00;;;;;;5097716;28;20728;-47
2022/01/12 09:59:26;;;;;;;11.10;10.20;;;21.70;33.20;;;;;;5114632;28;20640;-47
2022/01/12 10:01:54;;;;;;;10.90;9.93;;;22.30;32.80;;;;;;5120267;28;20429;-48
2022/01/12 10:04:25;;;;;;;9.60;8.80;;;22.90;32.30;;;;;;5119968;28;20406;-47
2022/01/12 10:06:58;;;;;;;9.87;9.17;;;23.40;32.10;;;;;;5119493;28;20433;-46
2022/01/12 10:09:35;;;;;;;10.87;9.87;;;23.80;31.10;;;;;;5118927;28;20807;-47
2022/01/12 10:12:07;;;;;;;9.77;8.97;;;24.30;30.80;;;;;;5119176;28;20433;-41
2022/01/12 10:14:49;;;;;;;9.13;8.43;;;24.80;30.40;;;;;;5118545;28;20502;-41
2022/01/12 10:17:16;;;;;;;8.97;8.17;;;25.20;29.70;;;;;;5119395;28;20432;-43
2022/01/12 10:19:45;;;;;;;10.07;9.27;;;25.50;29.30;;;;;;5118387;28;20470;-41
2022/01/12 10:22:16;;;;;;;9.30;8.50;;;25.90;28.30;;;;;;5099519;28;20451;-42
2022/01/12 10:24:44;;;;;;;9.37;8.57;;;26.10;28.30;;;;;;5100707;28;20501;-43
2022/01/12 10:27:19;;;;;;;10.50;9.60;;;26.10;28.30;;;;;;5118581;28;20472;-40
2022/01/12 10:29:46;;;;;;;10.03;9.23;;;25.70;28.00;;;;;;5099806;28;20480;-41
2022/01/12 10:32:17;;;;;;;10.90;10.10;;;25.40;28.40;;;;;;5117558;28;20409;-42
2022/01/12 10:34:45;;;;;;;10.73;9.80;;;25.10;28.20;;;;;;5119081;28;20417;-42
2022/01/12 10:37:27;;;;;;;10.00;9.10;;;25.10;28.50;;;;;;5120086;28;20815;-41
2022/01/12 10:39:55;;;;;;;10.40;9.60;;;25.20;28.40;;;;;;5112881;28;20700;-42
2022/01/12 10:42:23;;;;;;;10.77;9.87;;;25.20;27.80;;;;;;5119716;28;20416;-42
2022/01/12 10:44:56;;;;;;;9.13;8.43;;;25.10;27.70;;;;;;5119216;28;20831;-42
2022/01/12 10:47:28;;;;;;;9.93;9.13;;;24.90;27.90;;;;;;5117414;28;20417;-41
2022/01/12 10:49:54;;;;;;;9.77;8.97;;;24.90;28.20;;;;;;5116903;28;20898;-43
2022/01/12 10:52:38;;;;;;;10.63;9.77;;;25.00;27.90;;;;;;5115221;28;20429;-41
2022/01/12 10:55:08;;;;;;;9.80;9.10;;;24.90;27.90;;;;;;5113377;28;20267;-41
2022/01/12 10:57:39;;;;;;;10.20;9.40;;;24.40;27.80;;;;;;5116550;28;20462;-40
2022/01/12 11:00:18;;;;;;;10.00;9.20;;;23.80;27.80;;;;;;5115681;28;20456;-40
2022/01/12 11:02:51;;;;;;;10.57;9.60;;;23.00;28.10;;;;;;5114801;28;20458;-41
2022/01/12 11:05:19;;;;;;;10.03;9.33;;;23.30;28.30;;;;;;5116429;28;20417;-41
2022/01/12 11:07:45;;;;;;;9.73;8.93;;;23.70;28.20;;;;;;5116300;28;20441;-40
2022/01/12 11:10:12;;;;;;;10.43;9.53;;;24.30;28.20;;;;;;5116914;28;20422;-41
2022/01/12 11:12:38;;;;;;;9.87;9.07;;;24.80;27.70;;;;;;5116397;28;20172;-41
2022/01/12 11:15:09;;;;;;;11.03;10.23;;;25.20;28.10;;;;;;5116399;28;20433;-42
2022/01/12 11:17:38;;;;;;;9.70;9.00;;;26.00;27.50;;;;;;5118513;28;20525;-41
2022/01/12 11:20:21;;;;;;;10.80;9.93;;;26.90;27.20;;;;;;5118863;28;20692;-43
2022/01/12 11:23:08;;;;;;;8.90;8.30;;;27.90;26.50;;;;;;5099991;28;20430;-42
2022/01/12 11:25:41;;;;;;;9.40;8.70;;;29.20;25.80;;;;;;5116236;28;20442;-42
2022/01/12 11:28:06;;;;;;;8.40;7.57;;;30.10;25.20;;;;;;5116528;28;20829;-42
2022/01/12 11:30:35;;;;;;;7.33;6.73;;;30.60;25.80;;;;;;5116052;28;20418;-41
2022/01/12 11:33:04;;;;;;;7.17;6.57;;;31.30;26.20;;;;;;5114458;28;20283;-41
2022/01/12 11:35:33;;;;;;;7.90;7.30;;;32.20;26.10;;;;;;5112433;28;20911;-42
2022/01/12 11:38:00;;;;;;;6.43;6.00;;;32.90;25.60;;;;;;5095719;28;20444;-42
2022/01/12 11:40:42;;;;;;;8.17;7.57;;;33.60;25.10;;;;;;5115467;28;20401;-43
2022/01/12 11:43:29;;;;;;;7.10;6.50;;;34.10;24.50;;;;;;5114900;28;20455;-44
2022/01/12 11:46:09;;;;;;;7.80;7.20;;;34.40;24.80;;;;;;5097927;28;20463;-42
2022/01/12 11:48:50;;;;;;;10.27;9.47;;;34.50;24.40;;;;;;5114693;28;20671;-42
2022/01/12 11:51:19;;;;;;;8.73;8.03;;;34.50;23.40;;;;;;5114450;28;20736;-43
2022/01/12 11:53:53;;;;;;;8.37;7.77;;;34.40;23.00;;;;;;5115769;28;20392;-43
2022/01/12 11:56:21;;;;;;;8.80;8.20;;;34.60;22.60;;;;;;5115977;28;20393;-42
2022/01/12 11:59:10;;;;;;;7.93;7.33;;;34.50;22.50;;;;;;5097410;28;20773;-42
2022/01/12 12:01:52;;;;;;;9.60;8.80;;;34.70;22.30;;;;;;5114767;28;20742;-41
2022/01/12 12:04:41;;;;;;;9.93;9.13;;;34.50;21.70;;;;;;5103966;28;20438;-43
2022/01/12 12:07:12;;;;;;;8.40;7.80;;;34.20;21.60;;;;;;5107190;28;20405;-42
2022/01/12 12:09:56;;;;;;;7.97;7.47;;;34.40;21.90;;;;;;5115746;28;20487;-43
2022/01/12 12:12:27;;;;;;;7.50;7.00;;;34.50;21.90;;;;;;5113775;28;20499;-43
2022/01/12 12:14:55;;;;;;;7.27;6.70;;;34.70;21.70;;;;;;5095944;28;20881;-43
2022/01/12 12:17:23;;;;;;;9.07;8.40;;;34.90;21.80;;;;;;5096395;28;20415;-42
2022/01/12 12:19:49;;;;;;;7.23;6.73;;;34.90;21.40;;;;;;5107907;28;20530;-42
2022/01/12 12:22:21;;;;;;;8.50;7.90;;;34.60;21.30;;;;;;5110989;28;20714;-43
2022/01/12 12:24:56;;;;;;;8.90;8.20;;;34.50;21.50;;;;;;5112625;28;20406;-42
2022/01/12 12:27:23;;;;;;;9.27;8.57;;;34.40;21.40;;;;;;5110192;28;20448;-43
2022/01/12 12:29:49;;;;;;;8.53;7.83;;;34.50;21.40;;;;;;5112348;28;20436;-41
2022/01/12 12:32:18;;;;;;;9.20;8.50;;;34.30;21.10;;;;;;5114332;28;20390;-43
2022/01/12 12:34:46;;;;;;;9.90;9.20;;;34.10;21.20;;;;;;5114491;28;20431;-47
2022/01/12 12:37:15;;;;;;;9.70;9.00;;;33.70;21.20;;;;;;5114448;28;20450;-42
2022/01/12 12:39:45;;;;;;;8.57;7.87;;;33.60;21.20;;;;;;5113824;28;20551;-44
2022/01/12 12:42:19;;;;;;;8.50;7.90;;;33.80;21.40;;;;;;5078460;28;20479;-44
2022/01/12 12:44:47;;;;;;;8.93;8.17;;;33.80;21.60;;;;;;5093184;28;20504;-42
2022/01/12 12:47:15;;;;;;;10.10;9.30;;;34.10;21.60;;;;;;5112809;28;20421;-43
2022/01/12 12:50:03;;;;;;;10.83;10.03;;;34.00;21.50;;;;;;5112839;28;20545;-45
2022/01/12 12:52:34;;;;;;;9.20;8.50;;;34.10;21.30;;;;;;5113651;28;21002;-44
2022/01/12 12:55:12;;;;;;;9.20;8.53;;;34.30;21.20;;;;;;5113865;28;20835;-42
2022/01/12 12:57:50;;;;;;;9.90;9.20;;;34.20;21.10;;;;;;5115656;28;20903;-45
2022/01/12 13:00:22;;;;;;;9.67;8.97;;;34.00;21.40;;;;;;5116437;28;20782;-44
2022/01/12 13:02:51;;;;;;;10.03;9.33;;;34.10;21.50;;;;;;5116435;28;20410;-42
2022/01/12 13:05:20;;;;;;;9.00;8.30;;;34.20;21.60;;;;;;5114048;28;20793;-43
2022/01/12 13:07:47;;;;;;;9.53;8.63;;;34.20;21.50;;;;;;5113152;28;20392;-44
2022/01/12 13:10:24;;;;;;;9.40;8.70;;;34.50;21.60;;;;;;5113968;28;20449;-45
2022/01/12 13:12:52;;;;;;;9.00;8.30;;;34.50;21.50;;;;;;5115355;28;20487;-43
2022/01/12 13:15:22;;;;;;;9.67;8.97;;;34.50;21.50;;;;;;5113358;28;20429;-42
2022/01/12 13:17:48;;;;;;;8.87;8.23;;;34.40;21.50;;;;;;5098582;28;20415;-43
2022/01/12 13:22:49;;;;;;;9.80;9.10;;;34.50;21.00;;;;;;5119313;28;20444;-45
2022/01/12 13:25:17;;;;;;;9.43;8.73;;;34.40;21.00;;;;;;5117476;28;20445;-45
2022/01/12 13:27:45;;;;;;;11.10;10.07;;;34.50;21.00;;;;;;5117248;28;20519;-43
2022/01/12 13:30:33;;;;;;;9.00;8.40;;;34.10;21.10;;;;;;5096453;28;20433;-43
2022/01/12 13:33:00;;;;;;;10.97;10.17;;;34.10;21.30;;;;;;5111643;28;20425;-42
2022/01/12 13:35:35;;;;;;;10.53;9.73;;;34.00;21.30;;;;;;5116416;28;20721;-44
2022/01/12 13:38:06;;;;;;;9.83;8.90;;;33.80;21.30;;;;;;5099348;28;20430;-44
2022/01/12 13:40:38;;;;;;;9.87;9.17;;;33.80;21.40;;;;;;5117199;28;20410;-43
2022/01/12 13:43:05;;;;;;;10.83;9.83;;;33.80;21.30;;;;;;5099163;28;20828;-43
2022/01/12 13:45:45;;;;;;;9.37;8.57;;;33.70;21.20;;;;;;5102687;27;20512;-42
2022/01/12 13:48:18;;;;;;;8.80;8.20;;;33.60;21.30;;;;;;5121147;27;20519;-44
2022/01/12 13:50:49;;;;;;;11.40;10.53;;;33.60;21.20;;;;;;5138980;27;20687;-44
2022/01/12 13:53:15;;;;;;;10.37;9.57;;;33.50;21.20;;;;;;5137577;27;20403;-42
2022/01/12 13:55:51;;;;;;;9.50;8.70;;;33.20;21.20;;;;;;5138297;27;20812;-43
2022/01/12 13:58:17;;;;;;;8.63;8.03;;;33.10;21.30;;;;;;5120677;27;20202;-44
2022/01/12 14:00:44;;;;;;;9.33;8.57;;;33.10;21.30;;;;;;5138214;27;20387;-45
2022/01/12 14:03:20;;;;;;;8.97;8.27;;;32.80;21.40;;;;;;5138891;27;20251;-42
2022/01/12 14:05:46;;;;;;;9.60;8.90;;;32.60;21.50;;;;;;5136645;27;20406;-45
2022/01/12 14:08:15;;;;;;;8.80;8.10;;;32.50;21.50;;;;;;5117522;27;20492;-42